createdAt,value
2022-09-22T00:01:32.000Z,92.32
2022-09-22T00:04:03.551Z,91.52
2022-09-22T00:06:33.484Z,92.13
2022-09-22T00:09:02.518Z,91.67
2022-09-22T00:11:36.037Z,91.92
2022-09-22T00:14:06.869Z,92.27
2022-09-22T00:16:37.303Z,91.99
2022-09-22T00:19:06.536Z,91.91
2022-09-22T00:21:34.419Z,92.34
2022-09-22T00:24:03.508Z,92.44
2022-09-22T00:26:32.674Z,92.14
2022-09-22T00:29:01.590Z,91.99
2022-09-22T00:31:30.705Z,92.34
2022-09-22T00:33:58.602Z,92.70
2022-09-22T00:36:27.894Z,92.65
2022-09-22T00:38:57.896Z,92.56
2022-09-22T00:41:27.809Z,92.70
2022-09-22T00:44:32.949Z,92.90
2022-09-22T00:47:06.806Z,92.51
2022-09-22T00:49:42.805Z,92.78
2022-09-22T00:52:12.123Z,92.85
2022-09-22T00:54:40.151Z,92.86
2022-09-22T00:57:09.148Z,92.70
2022-09-22T00:59:39.145Z,92.72
2022-09-22T01:02:07.842Z,92.54
2022-09-22T01:04:36.803Z,92.92
2022-09-22T01:07:05.945Z,92.55
2022-09-22T01:09:34.426Z,93.03
2022-09-22T01:12:03.786Z,93.09
2022-09-22T01:14:47.373Z,93.20
2022-09-22T01:17:28.850Z,93.22
2022-09-22T01:20:29.327Z,93.73
2022-09-22T01:23:24.429Z,93.09
2022-09-22T01:26:13.146Z,93.29
2022-09-22T01:29:04.300Z,93.48
2022-09-22T01:31:38.336Z,93.54
2022-09-22T01:34:12.262Z,94.04
2022-09-22T01:36:48.204Z,93.63
2022-09-22T01:39:20.609Z,93.50
2022-09-22T01:41:57.615Z,93.92
2022-09-22T01:44:32.173Z,93.93
2022-09-22T01:47:07.331Z,93.73
2022-09-22T01:49:40.855Z,93.75
2022-09-22T01:52:13.121Z,94.18
2022-09-22T01:54:45.641Z,93.87
2022-09-22T01:57:17.767Z,93.92
2022-09-22T01:59:51.635Z,94.14
2022-09-22T02:02:28.371Z,94.38
2022-09-22T02:05:00.429Z,93.79
2022-09-22T02:07:34.317Z,94.39
2022-09-22T02:10:08.020Z,94.54
2022-09-22T02:12:36.655Z,94.02
2022-09-22T02:15:05.062Z,94.03
2022-09-22T02:17:35.445Z,94.24
2022-09-22T02:20:06.168Z,94.22
2022-09-22T02:22:34.037Z,94.23
2022-09-22T02:25:01.943Z,94.60
2022-09-22T02:27:36.608Z,94.83
2022-09-22T02:30:09.705Z,94.54
2022-09-22T02:32:41.967Z,94.66
2022-09-22T02:35:10.817Z,94.59
2022-09-22T02:37:42.781Z,94.42
2022-09-22T02:40:19.808Z,94.67
2022-09-22T02:42:53.108Z,94.44
2022-09-22T02:45:27.175Z,94.70
2022-09-22T02:48:00.338Z,94.67
2022-09-22T02:50:30.718Z,94.84
2022-09-22T02:53:02.692Z,94.80
2022-09-22T02:55:31.073Z,94.96
2022-09-22T02:57:58.942Z,95.23
2022-09-22T03:00:26.804Z,95.01
2022-09-22T03:02:55.973Z,95.08
2022-09-22T03:05:23.804Z,95.15
2022-09-22T03:07:51.758Z,95.28
2022-09-22T03:10:19.587Z,95.22
2022-09-22T03:13:14.376Z,94.97
2022-09-22T03:15:36.886Z,95.39
2022-09-22T03:18:06.203Z,95.24
2022-09-22T03:20:34.076Z,95.04
2022-09-22T03:23:01.970Z,95.23
2022-09-22T03:25:29.802Z,95.29
2022-09-22T03:27:58.086Z,95.41
2022-09-22T03:30:26.015Z,95.46
2022-09-22T03:32:53.861Z,95.32
2022-09-22T03:35:23.187Z,95.37
2022-09-22T03:37:51.049Z,95.31
2022-09-22T03:40:19.175Z,95.43
2022-09-22T03:42:47.050Z,95.28
2022-09-22T03:45:15.543Z,95.41
2022-09-22T03:47:43.371Z,95.42
2022-09-22T03:50:11.575Z,95.51
2022-09-22T03:52:42.889Z,95.80
2022-09-22T03:55:11.431Z,95.44
2022-09-22T03:57:39.350Z,95.60
2022-09-22T04:00:08.653Z,95.49
2022-09-22T04:02:36.958Z,95.43
2022-09-22T04:05:05.135Z,95.20
2022-09-22T04:07:33.151Z,95.46
2022-09-22T04:10:02.621Z,95.64
2022-09-22T04:12:30.457Z,95.56
2022-09-22T04:14:58.283Z,95.67
2022-09-22T04:17:26.109Z,95.60
2022-09-22T04:19:55.155Z,95.69
2022-09-22T04:22:22.982Z,95.81
2022-09-22T04:24:50.836Z,95.63
2022-09-22T04:27:21.051Z,95.65
2022-09-22T04:29:49.549Z,95.75
2022-09-22T04:32:17.905Z,95.78
2022-09-22T04:34:46.287Z,95.56
2022-09-22T04:37:14.481Z,95.63
2022-09-22T04:39:42.406Z,95.59
2022-09-22T04:42:10.220Z,95.39
2022-09-22T04:44:39.531Z,95.65
2022-09-22T04:47:07.752Z,95.63
2022-09-22T04:49:35.577Z,95.59
2022-09-22T04:52:04.139Z,95.57
2022-09-22T04:54:32.394Z,95.73
2022-09-22T04:57:00.446Z,95.64
2022-09-22T04:59:29.497Z,95.67
2022-09-22T05:01:58.825Z,95.93
2022-09-22T05:04:26.745Z,95.91
2022-09-22T05:06:54.825Z,95.93
2022-09-22T05:09:22.867Z,95.71
2022-09-22T05:11:50.686Z,95.87
2022-09-22T05:14:22.759Z,95.77
2022-09-22T05:16:53.694Z,95.75
2022-09-22T05:19:22.898Z,95.66
2022-09-22T05:21:50.804Z,95.81
2022-09-22T05:24:18.674Z,95.75
2022-09-22T05:26:46.600Z,95.91
2022-09-22T05:29:14.846Z,96.09
2022-09-22T05:31:42.719Z,96.10
2022-09-22T05:34:10.571Z,95.88
2022-09-22T05:36:40.159Z,95.99
2022-09-22T05:39:08.018Z,96.02
2022-09-22T05:41:35.902Z,96.11
2022-09-22T05:44:03.778Z,96.26
2022-09-22T05:46:31.638Z,96.09
2022-09-22T05:48:59.510Z,96.43
2022-09-22T05:51:27.395Z,96.15
2022-09-22T05:53:56.702Z,96.10
2022-09-22T05:56:24.585Z,96.50
2022-09-22T05:58:52.714Z,96.57
2022-09-22T06:01:20.582Z,96.42
2022-09-22T06:03:48.547Z,96.13
2022-09-22T06:06:16.428Z,96.66
2022-09-22T06:08:48.728Z,96.75
2022-09-22T06:11:18.627Z,96.73
2022-09-22T06:13:46.529Z,96.14
2022-09-22T06:16:14.623Z,96.11
2022-09-22T06:18:42.388Z,96.51
2022-09-22T06:21:10.302Z,96.24
2022-09-22T06:23:42.607Z,95.96
2022-09-22T06:26:11.515Z,96.16
2022-09-22T06:28:40.706Z,96.07
2022-09-22T06:31:08.695Z,96.17
2022-09-22T06:33:36.595Z,96.39
2022-09-22T06:36:07.872Z,96.15
2022-09-22T06:38:35.825Z,96.18
2022-09-22T06:41:06.741Z,95.86
2022-09-22T06:43:37.772Z,95.82
2022-09-22T06:46:10.765Z,96.05
2022-09-22T06:48:39.000Z,95.60
2022-09-22T06:51:06.879Z,95.44
2022-09-22T06:53:34.701Z,93.93
2022-09-22T06:56:05.705Z,87.68
2022-09-22T06:58:52.352Z,73.63
2022-09-22T07:01:24.398Z,66.08
2022-09-22T07:03:52.504Z,54.61
2022-09-22T07:06:20.643Z,56.15
2022-09-22T07:08:49.962Z,50.23
2022-09-22T07:11:20.745Z,48.49
2022-09-22T07:13:48.728Z,45.50
2022-09-22T07:16:17.499Z,45.33
2022-09-22T07:18:48.312Z,45.03
2022-09-22T07:21:20.840Z,41.75
2022-09-22T07:23:50.194Z,41.01
2022-09-22T07:26:20.111Z,40.77
2022-09-22T07:28:50.267Z,42.17
2022-09-22T07:31:18.720Z,40.39
2022-09-22T07:33:48.044Z,40.85
2022-09-22T07:36:18.654Z,38.10
2022-09-22T07:38:49.315Z,37.09
2022-09-22T07:41:19.820Z,36.36
2022-09-22T07:43:53.222Z,39.85
2022-09-22T07:46:21.608Z,37.89
2022-09-22T07:48:50.981Z,35.06
2022-09-22T07:51:21.470Z,36.26
2022-09-22T07:53:51.363Z,36.63
2022-09-22T07:56:21.285Z,35.45
2022-09-22T07:58:50.924Z,34.74
2022-09-22T08:01:19.827Z,35.34
2022-09-22T08:03:47.764Z,35.48
2022-09-22T08:06:19.453Z,33.94
2022-09-22T08:08:52.300Z,33.00
2022-09-22T08:11:22.968Z,32.43
2022-09-22T08:13:53.506Z,29.74
2022-09-22T08:16:22.839Z,28.72
2022-09-22T08:18:56.047Z,30.95
2022-09-22T08:21:25.713Z,30.10
2022-09-22T08:23:56.494Z,29.92
2022-09-22T08:26:24.392Z,30.72
2022-09-22T08:28:52.810Z,31.42
2022-09-22T08:31:21.139Z,30.67
2022-09-22T08:33:50.130Z,26.97
2022-09-22T08:36:17.999Z,27.04
2022-09-22T08:38:49.296Z,26.96
2022-09-22T08:41:26.281Z,26.96
2022-09-22T08:43:57.364Z,24.55
2022-09-22T08:46:29.273Z,25.35
2022-09-22T08:49:21.464Z,25.96
2022-09-22T08:51:54.885Z,23.11
2022-09-22T08:54:28.145Z,23.63
2022-09-22T08:57:11.300Z,22.74
2022-09-22T08:59:44.729Z,22.80
2022-09-22T09:02:33.630Z,25.73
2022-09-22T09:05:46.558Z,23.98
2022-09-22T09:08:48.103Z,24.13
2022-09-22T09:11:31.738Z,23.63
2022-09-22T09:14:13.585Z,23.70
2022-09-22T09:16:48.045Z,22.63
2022-09-22T09:19:20.009Z,22.39
2022-09-22T09:21:52.528Z,24.15
2022-09-22T09:27:21.951Z,22.47
2022-09-22T09:30:00.276Z,21.61
2022-09-22T09:32:37.645Z,19.83
2022-09-22T09:35:07.171Z,17.66
2022-09-22T09:37:35.354Z,17.32
2022-09-22T09:40:05.761Z,18.54
2022-09-22T09:42:36.711Z,18.53
2022-09-22T09:45:05.651Z,18.54
2022-09-22T09:47:59.049Z,20.05
2022-09-22T09:50:31.910Z,18.95
2022-09-22T09:53:00.152Z,19.14
2022-09-22T09:55:28.414Z,16.94
2022-09-22T09:58:06.260Z,19.68
2022-09-22T10:00:35.038Z,17.06
2022-09-22T10:03:13.943Z,18.07
2022-09-22T10:05:43.417Z,18.69
2022-09-22T10:08:20.986Z,17.94
2022-09-22T10:10:49.284Z,16.94
2022-09-22T10:13:24.720Z,16.81
2022-09-22T10:16:22.207Z,16.60
2022-09-22T10:18:52.017Z,16.00
2022-09-22T10:21:22.024Z,15.33
2022-09-22T10:23:51.390Z,14.22
2022-09-22T10:26:26.218Z,15.18
2022-09-22T10:29:19.007Z,16.54
2022-09-22T10:32:05.239Z,17.11
2022-09-22T10:34:35.645Z,17.29
2022-09-22T10:37:10.515Z,15.73
2022-09-22T10:39:46.710Z,16.31
2022-09-22T10:42:34.186Z,13.35
2022-09-22T10:45:06.917Z,12.52
2022-09-22T10:47:55.351Z,17.03
2022-09-22T10:50:36.527Z,22.66
2022-09-22T10:53:21.829Z,28.38
2022-09-22T10:55:54.049Z,31.01
2022-09-22T10:58:40.627Z,31.67
2022-09-22T11:01:22.331Z,30.49
2022-09-22T11:04:09.512Z,29.00
2022-09-22T11:07:09.966Z,30.68
2022-09-22T11:10:01.221Z,26.19
2022-09-22T11:12:42.154Z,25.99
2022-09-22T11:15:24.162Z,23.70
2022-09-22T11:18:25.262Z,23.93
2022-09-22T11:21:03.095Z,24.60
2022-09-22T11:23:47.954Z,28.27
2022-09-22T11:26:33.542Z,26.49
2022-09-22T11:29:22.811Z,22.30
2022-09-22T11:31:58.769Z,19.29
2022-09-22T11:34:43.798Z,16.33
2022-09-22T11:37:27.808Z,12.87
2022-09-22T11:40:29.374Z,16.59
2022-09-22T11:43:09.189Z,15.45
2022-09-22T11:45:49.457Z,12.89
2022-09-22T11:48:33.788Z,16.17
2022-09-22T11:51:25.214Z,21.72
2022-09-22T11:54:16.569Z,19.45
2022-09-22T11:56:49.029Z,19.22
2022-09-22T11:59:33.883Z,16.70
2022-09-22T12:02:11.010Z,16.16
2022-09-22T12:04:43.562Z,18.29
2022-09-22T12:07:18.693Z,21.46
2022-09-22T12:09:53.076Z,19.65
2022-09-22T12:12:23.475Z,18.32
2022-09-22T12:14:59.069Z,15.40
2022-09-22T12:17:36.669Z,17.49
2022-09-22T12:20:16.952Z,15.74
2022-09-22T12:23:11.159Z,13.97
2022-09-22T12:25:48.988Z,15.53
2022-09-22T12:28:20.621Z,21.34
2022-09-22T12:31:07.006Z,24.97
2022-09-22T12:33:37.958Z,27.71
2022-09-22T12:36:06.734Z,26.02
2022-09-22T12:38:36.027Z,18.67
2022-09-22T12:41:04.649Z,14.95
2022-09-22T12:43:34.722Z,13.62
2022-09-22T12:46:06.783Z,14.42
2022-09-22T12:48:36.944Z,15.52
2022-09-22T12:51:32.439Z,15.08
2022-09-22T12:54:39.923Z,15.00
2022-09-22T12:57:47.379Z,17.79
2022-09-22T13:00:23.095Z,18.65
2022-09-22T13:02:51.363Z,16.74
2022-09-22T13:05:36.676Z,16.18
2022-09-22T13:08:05.245Z,17.23
2022-09-22T13:10:58.800Z,22.69
2022-09-22T13:13:44.347Z,23.85
2022-09-22T13:16:44.816Z,19.23
2022-09-22T13:19:13.008Z,19.61
2022-09-22T13:21:41.779Z,18.80
2022-09-22T13:24:23.638Z,17.95
2022-09-22T13:27:05.651Z,15.67
2022-09-22T13:29:34.343Z,14.74
2022-09-22T13:32:18.362Z,14.53
2022-09-22T13:34:47.373Z,17.71
2022-09-22T13:37:18.787Z,21.03
2022-09-22T13:39:50.793Z,22.47
2022-09-22T13:42:23.360Z,18.58
2022-09-22T13:44:58.019Z,18.97
2022-09-22T13:47:27.863Z,17.23
2022-09-22T13:49:58.452Z,18.36
2022-09-22T13:52:29.815Z,18.42
2022-09-22T13:55:00.731Z,17.70
2022-09-22T13:57:32.863Z,16.67
2022-09-22T14:00:01.910Z,16.53
2022-09-22T14:02:32.514Z,15.63
2022-09-22T14:05:03.773Z,15.15
2022-09-22T14:07:38.306Z,16.02
2022-09-22T14:10:19.205Z,16.44
2022-09-22T14:12:48.732Z,18.67
2022-09-22T14:15:43.282Z,23.75
2022-09-22T14:18:18.603Z,27.31
2022-09-22T14:20:47.446Z,28.41
2022-09-22T14:23:24.320Z,28.86
2022-09-22T14:25:52.573Z,29.40
2022-09-22T14:28:25.949Z,27.40
2022-09-22T14:30:54.516Z,24.44
2022-09-22T14:33:25.985Z,21.92
2022-09-22T14:36:01.772Z,22.58
2022-09-22T14:38:35.074Z,23.46
2022-09-22T14:41:03.137Z,25.02
2022-09-22T14:43:36.994Z,26.83
2022-09-22T14:46:23.190Z,27.29
2022-09-22T14:48:51.528Z,28.19
2022-09-22T14:51:22.956Z,29.45
2022-09-22T14:53:55.318Z,30.93
2022-09-22T14:56:27.730Z,30.81
2022-09-22T14:59:00.405Z,31.34
2022-09-22T15:01:49.583Z,31.67
2022-09-22T15:04:22.246Z,31.70
2022-09-22T15:06:51.748Z,31.62
2022-09-22T15:09:25.034Z,32.43
2022-09-22T15:11:54.779Z,32.10
2022-09-22T15:14:42.886Z,32.64
2022-09-22T15:17:54.829Z,32.80
2022-09-22T15:20:24.721Z,33.61
2022-09-22T15:22:53.970Z,33.46
2022-09-22T15:25:22.599Z,34.69
2022-09-22T15:27:53.406Z,33.99
2022-09-22T15:30:23.374Z,33.46
2022-09-22T15:32:51.421Z,33.22
2022-09-22T15:35:20.269Z,33.43
2022-09-22T15:37:50.555Z,34.25
2022-09-22T15:40:21.167Z,34.34
2022-09-22T15:43:11.366Z,34.93
2022-09-22T15:45:46.426Z,35.18
2022-09-22T15:48:22.437Z,35.41
2022-09-22T15:50:51.049Z,35.61
2022-09-22T15:53:19.010Z,36.06
2022-09-22T15:55:47.851Z,35.89
2022-09-22T15:58:18.412Z,36.69
2022-09-22T16:00:48.262Z,36.52
2022-09-22T16:03:22.149Z,37.65
2022-09-22T16:05:56.612Z,37.43
2022-09-22T16:08:28.708Z,37.91
2022-09-22T16:10:57.397Z,37.83
2022-09-22T16:13:26.001Z,37.46
2022-09-22T16:15:55.982Z,36.77
2022-09-22T16:18:23.919Z,37.15
2022-09-22T16:20:52.119Z,37.62
2022-09-22T16:23:20.308Z,38.20
2022-09-22T16:25:53.459Z,38.04
2022-09-22T16:28:21.433Z,39.22
2022-09-22T16:30:49.290Z,38.28
2022-09-22T16:33:18.324Z,38.69
2022-09-22T16:35:46.228Z,38.70
2022-09-22T16:38:14.309Z,39.12
2022-09-22T16:40:42.486Z,39.74
2022-09-22T16:43:10.871Z,40.54
2022-09-22T16:45:56.399Z,39.63
2022-09-22T16:48:25.866Z,40.49
2022-09-22T16:50:54.921Z,41.04
2022-09-22T16:53:22.932Z,41.41
2022-09-22T16:55:50.897Z,41.77
2022-09-22T16:58:20.099Z,42.14
2022-09-22T17:00:48.554Z,44.26
2022-09-22T17:03:18.778Z,45.39
2022-09-22T17:05:48.194Z,47.73
2022-09-22T17:08:21.882Z,49.14
2022-09-22T17:10:56.151Z,50.23
2022-09-22T17:13:27.911Z,50.90
2022-09-22T17:16:07.918Z,52.17
2022-09-22T17:18:41.881Z,53.66
2022-09-22T17:21:11.862Z,55.00
2022-09-22T17:23:40.479Z,55.75
2022-09-22T17:26:11.661Z,55.41
2022-09-22T17:28:40.784Z,56.35
2022-09-22T17:31:08.776Z,56.88
2022-09-22T17:33:46.924Z,57.01
2022-09-22T17:36:20.267Z,58.14
2022-09-22T17:38:50.626Z,58.93
2022-09-22T17:41:20.528Z,60.25
2022-09-22T17:43:51.911Z,59.77
2022-09-22T17:46:21.347Z,60.71
2022-09-22T17:49:06.989Z,60.56
2022-09-22T17:51:55.658Z,62.10
2022-09-22T17:54:42.919Z,62.48
2022-09-22T17:57:15.894Z,63.43
2022-09-22T17:59:43.884Z,63.84
2022-09-22T18:02:14.268Z,64.03
2022-09-22T18:04:43.003Z,64.87
2022-09-22T18:07:15.716Z,64.52
2022-09-22T18:09:43.776Z,64.99
2022-09-22T18:12:13.533Z,65.76
2022-09-22T18:14:43.406Z,66.12
2022-09-22T18:17:12.739Z,66.51
2022-09-22T18:19:42.944Z,66.87
2022-09-22T18:22:16.727Z,67.39
2022-09-22T18:24:45.270Z,67.91
2022-09-22T18:27:13.193Z,68.05
2022-09-22T18:29:41.099Z,68.87
2022-09-22T18:32:09.155Z,68.50
2022-09-22T18:34:37.537Z,68.51
2022-09-22T18:37:06.081Z,69.02
2022-09-22T18:39:35.520Z,69.41
2022-09-22T18:42:04.752Z,69.69
2022-09-22T18:44:34.513Z,69.96
2022-09-22T18:47:02.807Z,70.42
2022-09-22T18:49:33.117Z,70.56
2022-09-22T18:52:02.483Z,71.13
2022-09-22T18:54:31.194Z,72.20
2022-09-22T18:57:03.423Z,71.82
2022-09-22T18:59:31.405Z,71.97
2022-09-22T19:01:59.942Z,71.33
2022-09-22T19:04:28.044Z,71.67
2022-09-22T19:07:13.769Z,71.94
2022-09-22T19:09:42.055Z,72.72
2022-09-22T19:12:12.127Z,72.48
2022-09-22T19:14:41.663Z,72.70
2022-09-22T19:17:11.524Z,73.14
2022-09-22T19:19:42.242Z,73.26
2022-09-22T19:22:12.068Z,73.74
2022-09-22T19:24:45.991Z,73.71
2022-09-22T19:27:19.003Z,73.90
2022-09-22T19:29:46.984Z,74.42
2022-09-22T19:32:14.861Z,74.42
2022-09-22T19:34:42.731Z,74.30
2022-09-22T19:37:10.625Z,74.80
2022-09-22T19:39:38.929Z,74.99
2022-09-22T19:42:07.072Z,75.02
2022-09-22T19:44:36.137Z,75.00
2022-09-22T19:47:03.990Z,75.10
2022-09-22T19:49:31.919Z,75.23
2022-09-22T19:51:59.839Z,75.65
2022-09-22T19:54:27.813Z,75.56
2022-09-22T19:56:55.688Z,75.95
2022-09-22T19:59:23.561Z,76.38
2022-09-22T20:01:54.931Z,76.65
2022-09-22T20:04:23.422Z,76.24
2022-09-22T20:06:51.294Z,76.51
2022-09-22T20:09:19.237Z,76.97
2022-09-22T20:11:50.259Z,77.21
2022-09-22T20:14:20.859Z,77.38
2022-09-22T20:16:50.327Z,77.52
2022-09-22T20:19:20.274Z,77.78
2022-09-22T20:21:49.566Z,78.20
2022-09-22T20:24:19.597Z,78.55
2022-09-22T20:26:48.270Z,78.74
2022-09-22T20:29:17.203Z,79.15
2022-09-22T20:31:45.751Z,79.27
2022-09-22T20:34:15.910Z,78.80
2022-09-22T20:36:45.177Z,79.21
2022-09-22T20:39:15.209Z,79.62
2022-09-22T20:41:44.309Z,79.17
2022-09-22T20:44:14.692Z,79.79
2022-09-22T20:46:43.361Z,80.06
2022-09-22T20:49:13.211Z,79.96
2022-09-22T20:51:41.077Z,79.84
2022-09-22T20:54:10.674Z,80.46
2022-09-22T20:56:42.702Z,80.35
2022-09-22T20:59:11.317Z,80.84
2022-09-22T21:01:39.264Z,81.07
2022-09-22T21:04:07.241Z,80.94
2022-09-22T21:06:35.225Z,81.20
2022-09-22T21:09:20.819Z,81.04
2022-09-22T21:11:50.332Z,81.33
2022-09-22T21:14:18.173Z,81.88
2022-09-22T21:16:49.316Z,81.93
2022-09-22T21:19:17.162Z,81.53
2022-09-22T21:21:45.614Z,81.23
2022-09-22T21:24:14.259Z,80.49
2022-09-22T21:26:42.230Z,80.69
2022-09-22T21:29:11.460Z,81.23
2022-09-22T21:31:39.321Z,81.61
2022-09-22T21:34:07.270Z,81.31
2022-09-22T21:36:35.200Z,80.91
2022-09-22T21:39:03.069Z,80.97
2022-09-22T21:41:32.231Z,81.02
2022-09-22T21:44:00.366Z,81.05
2022-09-22T21:46:30.118Z,80.18
2022-09-22T21:49:01.355Z,79.73
2022-09-22T21:51:31.003Z,79.82
2022-09-22T21:53:58.898Z,79.75
2022-09-22T21:56:26.812Z,80.55
2022-09-22T21:58:55.855Z,80.48
2022-09-22T22:01:25.785Z,80.81
2022-09-22T22:03:56.829Z,80.83
2022-09-22T22:06:26.309Z,81.39
2022-09-22T22:09:00.750Z,81.72
2022-09-22T22:11:31.123Z,81.58
2022-09-22T22:14:01.192Z,82.19
2022-09-22T22:16:32.087Z,82.29
2022-09-22T22:19:01.423Z,82.07
2022-09-22T22:21:30.713Z,81.65
2022-09-22T22:24:21.822Z,81.56
2022-09-22T22:26:51.680Z,81.83
2022-09-22T22:29:20.872Z,81.68
2022-09-22T22:31:49.961Z,81.63
2022-09-22T22:34:20.721Z,81.39
2022-09-22T22:36:48.602Z,81.12
2022-09-22T22:39:17.275Z,81.08
2022-09-22T22:41:45.399Z,80.82
2022-09-22T22:44:13.219Z,80.55
2022-09-22T22:46:41.095Z,81.25
2022-09-22T22:49:09.070Z,81.14
2022-09-22T22:51:39.880Z,81.82
2022-09-22T22:54:07.998Z,81.18
2022-09-22T22:56:38.698Z,81.17
2022-09-22T22:59:09.001Z,81.81
2022-09-22T23:01:37.343Z,81.82
2022-09-22T23:04:07.495Z,82.06
2022-09-22T23:06:39.438Z,81.93
2022-09-22T23:09:11.142Z,81.95
2022-09-22T23:11:40.696Z,82.58
2022-09-22T23:14:25.998Z,81.96
2022-09-22T23:16:54.101Z,81.97
2022-09-22T23:19:21.872Z,82.52
2022-09-22T23:21:51.467Z,81.53
2022-09-22T23:24:19.565Z,82.08
2022-09-22T23:26:48.178Z,81.53
2022-09-22T23:29:16.146Z,81.20
2022-09-22T23:31:44.257Z,81.63
2022-09-22T23:34:12.033Z,82.21
2022-09-22T23:36:40.608Z,82.14
2022-09-22T23:39:12.481Z,82.30
2022-09-22T23:41:40.436Z,82.18
2022-09-22T23:44:08.417Z,82.04
2022-09-22T23:46:38.209Z,82.31
2022-09-22T23:49:06.722Z,82.14
2022-09-22T23:51:34.635Z,82.64
2022-09-22T23:54:02.417Z,82.53
2022-09-22T23:56:31.608Z,82.49
2022-09-22T23:58:59.357Z,82.72
